Terminal Aerodrome Forecast
Issued by NWS Los Angeles, CA

Home | Current Version | Previous Version | Text Only | Print | Product List | Glossary On
Versions: 1 2 3 4 5 6 7 8 9 10 11 12 13 14 15 16 17 18 19 20 21 22 23 24
000
FTUS46 KLOX 311120
TAFSMX
TAF
KSMX 311120Z 3112/0112 VRB03KT 6SM BR SKC
     FM311300 VRB03KT 3SM BR BKN005
     FM311600 VRB03KT P6SM SKC
     FM311800 31006KT P6SM SKC
     FM312100 31015G22KT P6SM SKC
     FM010300 31006KT P6SM SKC
     FM010900 VRB03KT 4SM BR OVC003
     FM011100 VRB03KT 1SM BR OVC001=

USA.gov is the U.S. government's official web portal to all federal, state and local government web resources and services.